»·PEaware :: N258CB KHIO-KALW

N258CB :: KHIO-KALW

FLIGHT INFORMATION

Flight Status: Arrived
Operator: Privately registered:
United States
More flights under this callsign
Pilot: Eric W. (14379)
Aircraft: CESSNA 208 CARAVAN
(C208)
More flights by this aircraft type
Origin: KHIO Portland-Hillsboro
United States
Destination: KALW Walla Walla Regl
United States
More flights between these airports :: More routes between these airports
Route: SCAPO7 SCAPO BTG V112 LTJ V520 LYLES
File this flight plan on PilotEdge
Remarks: RMK / SIMBRIEF
Altitude:
(Current/Filed)
13,000ft
Speed:
(Current/Filed)
175kts
Departed: 21-Nov-20 08:22 PM
Arrived: 21-Nov-20 09:42 PM
Distance/Time
Traveled:
198nm/1:20
Distance/Time
To Go:
Arrived

Flight Plot

Page will automatically refresh every two minutes.

Flight plan parsing failed; only flown route is shown


Map Options




Map Legend


Flown Route
Filed Route
Departure Airport
Arrival Airport
Navaid (VOR, NDB)
Fix

Horizontal Profiles

Position Reports

Time Latitude Longitude Heading Altitude Ground
Speed
21-Nov-20 19:59 45.541439 -122.954282 65 206ft 0kts
21-Nov-20 20:00 45.541439 -122.954282 65 206ft 0kts
21-Nov-20 20:01 45.541439 -122.954282 65 206ft 0kts
21-Nov-20 20:02 45.541439 -122.954282 65 206ft 0kts
21-Nov-20 20:03 45.541439 -122.954282 65 206ft 0kts
21-Nov-20 20:04 45.541439 -122.954282 65 206ft 0kts
21-Nov-20 20:05 45.541439 -122.954282 65 206ft 0kts
21-Nov-20 20:06 45.541439 -122.954282 65 206ft 0kts
21-Nov-20 20:06 45.541439 -122.954282 65 206ft 0kts
21-Nov-20 20:07 45.541439 -122.954282 65 206ft 0kts
21-Nov-20 20:08 45.541439 -122.954282 65 206ft 0kts
21-Nov-20 20:09 45.541439 -122.954282 65 206ft 0kts
21-Nov-20 20:10 45.541439 -122.954282 65 206ft 0kts
21-Nov-20 20:11 45.541439 -122.954282 65 206ft 0kts
21-Nov-20 20:12 45.541439 -122.954282 65 206ft 0kts
21-Nov-20 20:13 45.541439 -122.954282 65 206ft 0kts
21-Nov-20 20:14 45.541278 -122.952699 142 209ft 11kts
21-Nov-20 20:15 45.537730 -122.948953 144 203ft 19kts
21-Nov-20 20:16 45.534766 -122.945864 144 207ft 0kts
21-Nov-20 20:17 45.534766 -122.945864 144 207ft 0kts
21-Nov-20 20:18 45.534766 -122.945864 144 207ft 0kts
21-Nov-20 20:19 45.534614 -122.945247 61 208ft 0kts
21-Nov-20 20:20 45.534888 -122.944661 52 208ft 10kts
21-Nov-20 20:21 45.539783 -122.949310 324 216ft 84kts
21-Nov-20 20:22 45.562662 -122.973479 324 1198ft 105kts
21-Nov-20 20:23 45.588114 -122.996990 330 2319ft 110kts
21-Nov-20 20:24 45.615290 -123.009713 0 3403ft 112kts
21-Nov-20 20:25 45.645732 -123.015572 358 4586ft 111kts
21-Nov-20 20:26 45.676755 -123.019453 356 5730ft 114kts
21-Nov-20 20:27 45.709253 -123.023525 355 6805ft 123kts
21-Nov-20 20:28 45.743750 -123.027881 355 7896ft 126kts
21-Nov-20 20:29 45.752792 -123.001177 91 8925ft 131kts
21-Nov-20 20:30 45.751108 -122.949202 91 9986ft 134kts
21-Nov-20 20:31 45.750929 -122.895145 90 10988ft 139kts
21-Nov-20 20:32 45.750432 -122.839336 90 11944ft 143kts
21-Nov-20 20:33 45.749846 -122.782215 89 12874ft 146kts
21-Nov-20 20:34 45.749217 -122.718113 89 13185ft 179kts
21-Nov-20 20:35 45.748400 -122.644076 89 13178ft 192kts
21-Nov-20 20:36 45.747466 -122.567858 90 13168ft 193kts
21-Nov-20 20:37 45.746127 -122.491570 89 13172ft 193kts
21-Nov-20 20:38 45.744781 -122.415094 90 13182ft 194kts
21-Nov-20 20:39 45.743384 -122.338462 89 13175ft 193kts
21-Nov-20 20:40 45.741943 -122.262083 90 13180ft 193kts
21-Nov-20 20:41 45.740453 -122.185810 89 13175ft 192kts
21-Nov-20 20:42 45.738926 -122.110222 90 13186ft 191kts
21-Nov-20 20:43 45.737352 -122.033923 90 13195ft 193kts
21-Nov-20 20:44 45.735697 -121.958099 89 13183ft 192kts
21-Nov-20 20:45 45.734034 -121.882795 89 13200ft 190kts
21-Nov-20 20:46 45.732294 -121.807676 89 13208ft 189kts
21-Nov-20 20:47 45.730528 -121.732986 89 13215ft 190kts
21-Nov-20 20:48 45.728678 -121.657284 89 13211ft 189kts
21-Nov-20 20:49 45.726816 -121.582704 89 13214ft 188kts
21-Nov-20 20:50 45.724884 -121.507763 89 13222ft 188kts
21-Nov-20 20:51 45.722923 -121.433209 90 13226ft 189kts
21-Nov-20 20:52 45.720912 -121.358421 89 13219ft 187kts
21-Nov-20 20:53 45.718837 -121.283680 89 13229ft 188kts
21-Nov-20 20:54 45.716727 -121.207927 89 13086ft 191kts
21-Nov-20 20:55 45.714510 -121.132292 89 13079ft 190kts
21-Nov-20 20:56 45.725529 -121.059399 66 13071ft 187kts
21-Nov-20 20:57 45.745518 -120.991435 64 13065ft 184kts
21-Nov-20 20:58 45.765136 -120.923740 64 13070ft 184kts
21-Nov-20 20:59 45.784802 -120.855886 64 13074ft 184kts
21-Nov-20 21:00 45.804466 -120.787817 64 13085ft 186kts
21-Nov-20 21:01 45.824077 -120.719756 64 13075ft 185kts
21-Nov-20 21:02 45.843753 -120.651268 65 13069ft 186kts
21-Nov-20 21:03 45.863316 -120.582983 65 13068ft 186kts
21-Nov-20 21:04 45.883024 -120.514010 65 13043ft 187kts
21-Nov-20 21:05 45.902661 -120.445105 64 13035ft 187kts
21-Nov-20 21:06 45.922255 -120.376131 64 13038ft 187kts
21-Nov-20 21:07 45.941767 -120.307255 64 13033ft 187kts
21-Nov-20 21:08 45.961320 -120.238053 64 13036ft 187kts
21-Nov-20 21:09 45.980826 -120.168787 63 13034ft 187kts
21-Nov-20 21:10 46.000346 -120.099323 63 13036ft 188kts
21-Nov-20 21:11 46.019909 -120.029494 63 13035ft 188kts
21-Nov-20 21:12 46.039427 -119.959578 62 13035ft 188kts
21-Nov-20 21:13 46.058856 -119.889822 62 13036ft 188kts
21-Nov-20 21:14 46.078334 -119.819674 62 13036ft 189kts
21-Nov-20 21:15 46.097777 -119.749436 62 13037ft 189kts
21-Nov-20 21:16 46.117268 -119.678831 62 13037ft 189kts
21-Nov-20 21:17 46.136693 -119.608269 61 13039ft 190kts
21-Nov-20 21:18 46.156191 -119.537213 62 13043ft 191kts
21-Nov-20 21:19 46.175624 -119.466221 61 13038ft 191kts
21-Nov-20 21:20 46.195102 -119.394821 61 13045ft 191kts
21-Nov-20 21:21 46.199941 -119.319749 100 13047ft 204kts
21-Nov-20 21:22 46.185959 -119.240502 100 13050ft 204kts
21-Nov-20 21:23 46.172181 -119.161214 97 13047ft 204kts
21-Nov-20 21:24 46.160842 -119.081025 96 13042ft 204kts
21-Nov-20 21:25 46.152416 -119.006339 92 13043ft 202kts
21-Nov-20 21:26 46.146244 -118.928061 90 12983ft 199kts
21-Nov-20 21:27 46.141107 -118.848480 89 12966ft 200kts
21-Nov-20 21:28 46.137798 -118.770815 86 12973ft 200kts
21-Nov-20 21:29 46.137137 -118.691060 85 12975ft 199kts
21-Nov-20 21:30 46.137121 -118.611218 86 12995ft 199kts
21-Nov-20 21:31 46.135466 -118.531883 87 12749ft 204kts
21-Nov-20 21:32 46.128009 -118.453595 103 10722ft 183kts
21-Nov-20 21:33 46.114225 -118.385533 107 8727ft 172kts
21-Nov-20 21:34 46.102660 -118.320331 106 6740ft 163kts
21-Nov-20 21:35 46.080159 -118.267263 128 4696ft 149kts
21-Nov-20 21:36 46.050050 -118.237530 214 2921ft 137kts
21-Nov-20 21:37 46.066962 -118.271464 344 2330ft 132kts
21-Nov-20 21:38 46.095219 -118.253925 41 1996ft 106kts
21-Nov-20 21:39 46.116410 -118.251889 278 1819ft 100kts
21-Nov-20 21:40 46.100394 -118.275866 214 1254ft 80kts
21-Nov-20 21:41 46.092496 -118.282320 130 1184ft 0kts
21-Nov-20 21:43 46.093165 -118.279786 37 1187ft 13kts
21-Nov-20 21:44 46.094924 -118.276665 156 1190ft 0kts
21-Nov-20 21:45 46.094924 -118.276665 156 1190ft 0kts
21-Nov-20 21:46 46.094924 -118.276665 156 1190ft 0kts
21-Nov-20 21:47 46.094924 -118.276665 156 1190ft 0kts
21-Nov-20 21:48 46.094924 -118.276665 156 1190ft 0kts
21-Nov-20 21:49 46.094924 -118.276665 156 1190ft 0kts
21-Nov-20 21:50 46.094924 -118.276665 156 1190ft 0kts
21-Nov-20 21:51 46.094924 -118.276665 156 1190ft 0kts
21-Nov-20 21:52 46.094924 -118.276665 156 1190ft 0kts
21-Nov-20 21:53 46.094924 -118.276665 156 1190ft 0kts
21-Nov-20 21:54 46.094924 -118.276665 156 1190ft 0kts
21-Nov-20 21:55 46.094924 -118.276665 156 1190ft 0kts
21-Nov-20 21:56 46.094924 -118.276665 156 1190ft 0kts
21-Nov-20 21:57 46.094924 -118.276665 156 1190ft 0kts

Navigation Log

Ident Type
Flight plan parsing failed, navigation log unavailable